Time;durP1;ratioP1;P1;durP2;ratioP2;P2;SDS_P1;SDS_P2;PMS_P1;PMS_P2;Temp;Humidity;BMP_temperature;BMP_pressure;BME280_temperature;BME280_humidity;BME280_pressure;Samples;Min_cycle;Max_cycle;Signal;HPM_P1;HPM_P2
2023/05/01 00:00:06;;;;;;;;;19.33;18.67;;;;;16.49;49.35;101250.22;5071060;28;45425;-75
2023/05/01 00:02:31;;;;;;;;;25.00;19.33;;;;;16.68;49.49;101279.91;5054496;28;47974;-76
2023/05/01 00:04:57;;;;;;;;;16.00;14.67;;;;;16.64;49.63;101272.03;5061828;28;45398;-75
2023/05/01 00:07:24;;;;;;;;;20.33;19.00;;;;;16.63;49.78;101270.28;5078002;28;45335;-73
2023/05/01 00:09:51;;;;;;;;;15.33;15.33;;;;;16.68;50.05;101281.66;5080349;28;45259;-74
2023/05/01 00:12:16;;;;;;;;;21.00;19.00;;;;;16.59;49.92;101263.31;5079919;28;45575;-75
2023/05/01 00:14:42;;;;;;;;;21.33;18.67;;;;;16.62;50.01;101271.19;5060612;28;45517;-75
2023/05/01 00:17:11;;;;;;;;;25.00;19.00;;;;;16.70;50.04;101293.09;5071533;28;45827;-75
2023/05/01 00:19:37;;;;;;;;;22.33;19.00;;;;;16.69;49.75;101286.06;5076030;28;45390;-75
2023/05/01 00:22:02;;;;;;;;;18.33;16.67;;;;;16.69;50.52;101279.00;5075565;28;45338;-74
2023/05/01 00:24:28;;;;;;;;;19.00;18.00;;;;;16.68;50.18;101279.00;5075806;28;45373;-75
2023/05/01 00:26:54;;;;;;;;;20.33;16.67;;;;;16.38;50.59;101225.69;5075619;28;45383;-76
2023/05/01 00:29:19;;;;;;;;;23.00;19.00;;;;;16.36;49.99;101222.19;5075486;28;45559;-77
2023/05/01 00:31:46;;;;;;;;;21.67;17.00;;;;;16.12;50.27;101175.84;5074592;28;45702;-74
2023/05/01 00:34:11;;;;;;;;;25.33;20.33;;;;;16.67;50.61;101285.22;5043013;28;45503;-75
2023/05/01 00:36:37;;;;;;;;;18.67;15.67;;;;;16.67;50.80;101272.84;5064039;28;45465;-74
2023/05/01 00:39:03;;;;;;;;;18.67;18.00;;;;;16.68;50.44;101269.34;5076153;28;45799;-75
2023/05/01 00:41:28;;;;;;;;;22.33;18.67;;;;;16.58;50.79;101248.31;5075866;28;46094;-76
2023/05/01 00:43:57;;;;;;;;;19.00;14.67;;;;;16.65;51.01;101257.91;5061387;28;45414;-75
2023/05/01 00:46:24;;;;;;;;;20.67;16.00;;;;;16.59;51.23;101256.25;5071184;28;45518;-75
2023/05/01 00:48:51;;;;;;;;;18.00;15.33;;;;;16.50;51.23;101244.00;5067555;28;45457;-75
2023/05/01 00:51:19;;;;;;;;;22.33;18.67;;;;;16.45;50.79;101237.94;5053257;28;47928;-75
2023/05/01 00:53:44;;;;;;;;;24.33;20.33;;;;;16.27;51.57;101209.97;5049043;28;45465;-75
2023/05/01 00:56:11;;;;;;;;;24.00;20.33;;;;;16.38;51.12;101227.47;5075251;28;45453;-76
2023/05/01 00:58:37;;;;;;;;;20.33;18.33;;;;;16.52;51.59;101254.59;5059924;28;45528;-76
2023/05/01 01:01:08;;;;;;;;;20.67;19.67;;;;;16.34;51.52;101218.69;5058529;28;45664;-76
2023/05/01 01:03:34;;;;;;;;;17.33;16.67;;;;;16.10;51.23;101172.34;5041356;28;45488;-75
2023/05/01 01:06:12;;;;;;;;;18.67;18.67;;;;;16.41;51.17;101230.91;5074255;28;45855;-74
2023/05/01 01:08:56;;;;;;;;;19.67;19.67;;;;;16.44;51.53;101238.81;5080293;28;45425;-75
2023/05/01 01:11:27;;;;;;;;;23.33;21.67;;;;;16.43;51.53;101231.78;5078754;28;46360;-74
2023/05/01 01:14:10;;;;;;;;;23.33;19.00;;;;;16.41;51.73;101225.63;5077310;28;46608;-74
2023/05/01 01:16:45;;;;;;;;;19.67;18.33;;;;;16.38;51.65;101225.69;5056181;28;45526;-74
2023/05/01 01:19:26;;;;;;;;;20.33;17.00;;;;;16.37;51.72;101226.56;5075224;28;45576;-74
2023/05/01 01:22:00;;;;;;;;;20.33;18.00;;;;;16.29;51.93;101210.81;5074556;28;45857;-75
2023/05/01 01:24:47;;;;;;;;;21.00;18.67;;;;;16.33;52.05;101220.47;5074989;28;45505;-74
2023/05/01 01:27:31;;;;;;;;;22.67;21.67;;;;;16.31;52.14;101224.91;5060903;28;45363;-72
2023/05/01 01:30:12;;;;;;;;;22.33;21.33;;;;;16.28;51.87;101218.78;5064444;28;45601;-72
2023/05/01 01:33:16;;;;;;;;;24.33;22.33;;;;;16.26;52.14;101221.44;5075327;28;45515;-73
2023/05/01 01:36:01;;;;;;;;;21.33;19.67;;;;;16.21;51.95;101211.84;5068689;28;45680;-74
2023/05/01 01:38:47;;;;;;;;;23.00;19.33;;;;;16.21;52.17;101209.19;5064752;28;45424;-74
2023/05/01 01:41:20;;;;;;;;;20.33;18.00;;;;;16.03;52.39;101184.75;5056420;28;45604;-73
2023/05/01 01:43:57;;;;;;;;;19.33;19.00;;;;;15.84;52.47;101154.19;5054022;28;46870;-75
2023/05/01 01:46:27;;;;;;;;;28.25;21.25;;;;;16.00;52.66;101176.00;5069542;28;45579;-75
2023/05/01 01:48:59;;;;;;;;;24.67;19.33;;;;;16.04;52.32;101185.63;5074003;28;45545;-73
2023/05/01 01:51:28;;;;;;;;;23.00;19.50;;;;;15.90;52.54;101167.34;5074287;28;45401;-73
2023/05/01 01:53:57;;;;;;;;;19.33;18.33;;;;;15.97;52.65;101182.22;5073177;28;46326;-74
2023/05/01 01:56:26;;;;;;;;;20.00;18.00;;;;;15.93;52.56;101176.97;5052604;28;45532;-74
2023/05/01 01:58:53;;;;;;;;;19.67;18.67;;;;;16.11;52.69;101211.06;5070278;27;45517;-74
2023/05/01 02:01:21;;;;;;;;;22.00;20.00;;;;;16.11;52.77;101214.59;5074199;28;45566;-73
2023/05/01 02:03:47;;;;;;;;;26.00;22.67;;;;;16.03;53.20;101205.88;5058192;28;48023;-74
2023/05/01 02:06:15;;;;;;;;;18.00;16.00;;;;;16.05;52.95;101219.09;5075861;28;45469;-75
2023/05/01 02:08:44;;;;;;;;;25.50;20.50;;;;;16.03;52.70;101213.81;5073622;28;45425;-74
2023/05/01 02:11:14;;;;;;;;;18.67;18.00;;;;;15.93;52.61;101204.28;5073428;28;45525;-75
2023/05/01 02:13:44;;;;;;;;;22.00;19.33;;;;;16.00;52.63;101213.00;5073152;28;45817;-75
2023/05/01 02:16:12;;;;;;;;;24.33;21.00;;;;;15.87;52.97;101192.03;5073799;28;45807;-74
2023/05/01 02:18:40;;;;;;;;;29.50;23.75;;;;;16.03;52.90;101224.38;5073775;28;45447;-74
2023/05/01 02:21:06;;;;;;;;;22.75;20.50;;;;;15.84;52.70;101196.47;5074211;28;45723;-75
2023/05/01 02:23:32;;;;;;;;;25.67;21.00;;;;;15.86;52.69;101192.91;5073637;28;45734;-74
2023/05/01 02:26:02;;;;;;;;;28.25;25.25;;;;;15.92;52.85;101207.78;5074697;28;45414;-74
2023/05/01 02:28:29;;;;;;;;;7.75;6.25;;;;;15.99;53.11;101222.69;5078713;28;45363;-75
2023/05/01 02:30:56;;;;;;;;;20.25;19.75;;;;;15.88;52.89;101200.81;5078052;28;45516;-75
2023/05/01 02:33:22;;;;;;;;;22.00;19.75;;;;;15.96;53.01;101221.84;5077927;28;45776;-75
2023/05/01 02:35:48;;;;;;;;;22.25;21.25;;;;;15.86;52.76;101210.53;5077835;28;45877;-73
2023/05/01 02:38:15;;;;;;;;;22.67;22.00;;;;;15.72;53.80;101215.09;5074737;27;45455;-74
2023/05/01 02:40:45;;;;;;;;;31.33;20.67;;;;;15.67;53.47;101209.84;5073821;28;45756;-73
2023/05/01 02:43:15;;;;;;;;;22.00;20.50;;;;;15.59;53.39;101207.28;5077527;28;46565;-74
2023/05/01 02:45:48;;;;;;;;;23.25;19.25;;;;;15.61;53.29;101204.59;5078082;28;45440;-75
2023/05/01 02:48:19;;;;;;;;;18.67;17.67;;;;;15.31;52.99;101153.06;5075065;28;45509;-74
2023/05/01 02:50:47;;;;;;;;;18.33;16.33;;;;;15.52;53.15;101189.78;5053702;28;45786;-75
2023/05/01 02:53:14;;;;;;;;;22.25;19.50;;;;;15.66;53.36;101213.34;5072956;28;45512;-75
2023/05/01 02:55:44;;;;;;;;;19.50;17.00;;;;;15.73;53.30;101224.75;5072281;28;45846;-76
2023/05/01 02:58:16;;;;;;;;;23.75;17.75;;;;;15.71;53.62;101221.25;5073298;28;45528;-74
2023/05/01 03:00:43;;;;;;;;;20.00;17.33;;;;;15.56;53.33;101217.84;5055299;28;45362;-75
2023/05/01 03:03:10;;;;;;;;;22.00;18.67;;;;;15.51;53.57;101224.09;5073257;28;45416;-74
2023/05/01 03:05:37;;;;;;;;;18.75;17.25;;;;;15.39;53.44;101201.34;5072612;27;45530;-75
2023/05/01 03:08:03;;;;;;;;;20.75;17.25;;;;;15.55;53.73;101228.47;5074196;28;45556;-74
2023/05/01 03:10:28;;;;;;;;;21.25;19.50;;;;;15.56;53.66;101222.28;5077122;28;45462;-74
2023/05/01 03:12:54;;;;;;;;;22.50;18.50;;;;;15.46;53.97;101237.34;5076877;28;45652;-72
2023/05/01 03:15:19;;;;;;;;;22.25;19.75;;;;;15.31;54.15;101203.19;5077390;28;45433;-74
2023/05/01 03:17:45;;;;;;;;;22.50;19.50;;;;;15.40;54.68;101224.19;5077396;28;45422;-73
2023/05/01 03:20:14;;;;;;;;;21.67;17.67;;;;;15.29;54.38;101208.47;5077463;28;45691;-75
2023/05/01 03:22:43;;;;;;;;;23.00;18.50;;;;;15.19;54.28;101186.59;5077379;28;46444;-76
2023/05/01 03:25:09;;;;;;;;;20.00;19.50;;;;;15.20;54.35;101183.03;5077118;28;45364;-74
2023/05/01 03:27:35;;;;;;;;;20.75;20.00;;;;;15.09;55.15;101191.94;5054686;28;45442;-75
2023/05/01 03:30:01;;;;;;;;;21.25;20.25;;;;;15.22;55.22;101223.50;5073293;28;45605;-74
2023/05/01 03:32:28;;;;;;;;;28.25;22.00;;;;;15.21;55.46;101219.13;5073276;28;45972;-72
2023/05/01 03:34:56;;;;;;;;;18.50;17.75;;;;;15.20;55.10;101221.75;5072636;28;45514;-73
2023/05/01 03:37:25;;;;;;;;;24.50;19.50;;;;;15.25;55.64;101223.44;5073414;28;45595;-74
2023/05/01 03:39:51;;;;;;;;;25.75;22.75;;;;;15.20;55.45;101213.84;5077472;28;45484;-74
2023/05/01 03:42:16;;;;;;;;;24.00;20.00;;;;;15.19;55.45;101207.69;5076790;28;46080;-74
2023/05/01 03:44:42;;;;;;;;;26.50;22.00;;;;;15.30;55.20;101230.47;5073809;28;45320;-73
2023/05/01 03:47:09;;;;;;;;;25.25;23.25;;;;;15.02;55.38;101175.34;5072625;28;45514;-73
2023/05/01 03:49:35;;;;;;;;;25.25;22.50;;;;;15.20;55.48;101206.78;5073302;28;45359;-73
2023/05/01 03:52:00;;;;;;;;;26.75;24.75;;;;;15.33;55.36;101233.06;5073747;28;46660;-72
2023/05/01 03:54:26;;;;;;;;;27.25;25.75;;;;;15.18;55.85;101208.56;5053534;28;45548;-73
2023/05/01 03:56:52;;;;;;;;;32.00;25.75;;;;;15.22;55.47;101206.78;5044651;28;45497;-74
2023/05/01 03:59:17;;;;;;;;;32.75;28.25;;;;;15.24;55.84;101224.34;5072804;28;45353;-71
2023/05/01 04:01:43;;;;;;;;;31.00;26.50;;;;;15.18;56.27;101208.56;5072543;28;46392;-73
2023/05/01 04:04:09;;;;;;;;;28.00;23.00;;;;;15.27;56.45;101228.72;5072330;28;45477;-72
2023/05/01 04:06:35;;;;;;;;;29.00;26.00;;;;;15.31;56.28;101233.09;5074738;28;45809;-73
2023/05/01 04:09:01;;;;;;;;;27.75;22.25;;;;;15.26;56.39;101224.34;5080709;28;45519;-73
2023/05/01 04:11:27;;;;;;;;;51.00;35.25;;;;;15.32;57.76;101231.31;5058151;28;46991;-71
2023/05/01 04:13:52;;;;;;;;;46.50;35.75;;;;;15.24;56.93;101224.34;5075971;28;45518;-73
2023/05/01 04:16:18;;;;;;;;;40.50;30.00;;;;;15.30;56.47;101227.81;5075748;28;45506;-74
2023/05/01 04:18:43;;;;;;;;;34.75;29.75;;;;;15.34;56.65;101233.06;5053660;28;45537;-73
2023/05/01 04:21:09;;;;;;;;;36.25;31.00;;;;;15.10;56.76;101194.59;5072636;28;45689;-73
2023/05/01 04:23:35;;;;;;;;;37.00;33.00;;;;;15.31;56.90;101229.59;5077034;28;45559;-71
2023/05/01 04:26:00;;;;;;;;;41.50;33.50;;;;;15.28;57.15;101230.50;5080016;28;45710;-73
2023/05/01 04:28:29;;;;;;;;;38.50;34.50;;;;;15.01;57.31;101187.63;5058250;28;45510;-73
2023/05/01 04:30:56;;;;;;;;;39.25;33.00;;;;;15.17;57.19;101219.16;5071621;28;45871;-73
2023/05/01 04:33:22;;;;;;;;;32.00;30.25;;;;;15.18;57.50;101224.41;5057569;28;45335;-71
2023/05/01 04:35:48;;;;;;;;;34.00;30.25;;;;;15.19;57.49;101226.16;5080182;28;45493;-73
2023/05/01 04:38:13;;;;;;;;;31.75;28.75;;;;;15.18;57.41;101226.16;5059277;28;45426;-73
2023/05/01 04:40:39;;;;;;;;;34.75;31.50;;;;;15.18;57.54;101231.44;5075191;28;45934;-73
2023/05/01 04:43:04;;;;;;;;;34.25;28.75;;;;;15.16;57.72;101225.31;5076876;28;45638;-73
2023/05/01 04:45:30;;;;;;;;;35.50;31.25;;;;;15.29;57.52;101244.56;5057379;28;45394;-74
2023/05/01 04:47:56;;;;;;;;;44.00;34.25;;;;;15.26;57.18;101241.06;5075713;28;45423;-74
2023/05/01 04:50:22;;;;;;;;;44.25;35.25;;;;;15.36;57.22;101249.75;5071828;28;47192;-72
2023/05/01 04:52:48;;;;;;;;;40.75;33.25;;;;;15.31;57.38;101232.22;5074613;28;45505;-72
2023/05/01 04:55:14;;;;;;;;;32.25;31.25;;;;;15.38;57.37;101253.25;5075366;28;45431;-72
2023/05/01 04:57:40;;;;;;;;;30.25;26.00;;;;;15.33;57.52;101240.97;5075142;27;45423;-73
2023/05/01 05:00:06;;;;;;;;;40.50;31.50;;;;;15.40;57.53;101242.66;5074772;28;46375;-72
2023/05/01 05:02:32;;;;;;;;;40.50;33.00;;;;;15.37;57.31;101245.34;5074562;28;45461;-73
2023/05/01 05:04:58;;;;;;;;;38.00;32.75;;;;;15.42;57.80;101256.72;5076459;28;45392;-73
2023/05/01 05:07:23;;;;;;;;;41.25;32.25;;;;;15.35;57.69;101231.28;5074794;28;45617;-71
2023/05/01 05:09:49;;;;;;;;;37.50;31.75;;;;;15.52;57.66;101255.78;5077317;28;46029;-71
2023/05/01 05:12:15;;;;;;;;;44.75;35.75;;;;;15.56;57.12;101261.88;5079027;28;46109;-72
2023/05/01 05:14:41;;;;;;;;;39.25;32.50;;;;;15.44;57.40;101236.47;5060777;28;45468;-73
2023/05/01 05:17:07;;;;;;;;;43.25;33.75;;;;;15.59;57.16;101270.66;5078211;28;45426;-72
2023/05/01 05:19:33;;;;;;;;;46.00;33.75;;;;;15.47;57.13;101247.00;5073159;28;45932;-72
2023/05/01 05:22:02;;;;;;;;;38.75;33.75;;;;;15.52;57.51;101257.50;5074957;28;45361;-72
2023/05/01 05:24:27;;;;;;;;;39.50;33.50;;;;;15.56;56.75;101254.81;5057111;28;45458;-72
2023/05/01 05:26:53;;;;;;;;;44.50;31.50;;;;;15.66;56.91;101274.09;5072015;28;45475;-72
2023/05/01 05:29:19;;;;;;;;;44.50;34.50;;;;;15.53;56.88;101235.50;5063361;28;45598;-72
2023/05/01 05:31:46;;;;;;;;;45.00;36.25;;;;;15.69;56.95;101258.22;5074682;28;45432;-72
2023/05/01 05:34:12;;;;;;;;;47.00;37.00;;;;;15.70;56.73;101267.91;5074674;28;45481;-72
2023/05/01 05:36:37;;;;;;;;;41.75;35.50;;;;;15.70;57.00;101254.72;5077038;28;45551;-72
2023/05/01 05:39:03;;;;;;;;;34.50;31.25;;;;;15.80;56.99;101280.16;5073442;28;45742;-72
2023/05/01 05:41:28;;;;;;;;;45.00;37.00;;;;;15.81;56.65;101271.31;5069651;28;45625;-72
2023/05/01 05:43:54;;;;;;;;;42.50;35.50;;;;;15.78;56.59;101263.44;5076742;28;45376;-72
2023/05/01 05:46:20;;;;;;;;;39.50;35.50;;;;;15.82;56.36;101267.78;5074871;28;45377;-73
2023/05/01 05:48:45;;;;;;;;;40.25;32.75;;;;;15.88;56.20;101277.41;5076231;28;46116;-72
2023/05/01 05:51:14;;;;;;;;;40.75;32.50;;;;;15.78;56.19;101257.25;5078803;28;45260;-72
2023/05/01 05:53:40;;;;;;;;;40.75;32.75;;;;;15.87;56.16;101271.28;5057690;28;45534;-72
2023/05/01 05:56:06;;;;;;;;;41.50;33.75;;;;;15.94;56.24;101276.47;5056306;28;45619;-73
2023/05/01 05:58:32;;;;;;;;;38.50;33.50;;;;;15.84;55.99;101254.56;5074306;28;46795;-72
2023/05/01 06:00:57;;;;;;;;;42.00;35.25;;;;;15.96;56.07;101279.97;5074479;28;45414;-72
2023/05/01 06:03:23;;;;;;;;;39.50;34.75;;;;;15.96;55.77;101275.56;5073829;28;45450;-72
2023/05/01 06:05:48;;;;;;;;;38.75;35.25;;;;;16.07;55.65;101263.09;5074343;28;45591;-71
2023/05/01 06:08:14;;;;;;;;;45.25;35.50;;;;;16.25;55.21;101269.03;5074451;28;46517;-73
2023/05/01 06:10:42;;;;;;;;;37.25;33.75;;;;;16.29;55.11;101262.81;5074632;28;45743;-72
2023/05/01 06:13:09;;;;;;;;;51.25;35.75;;;;;16.27;54.86;101260.19;5073599;28;45582;-73
2023/05/01 06:15:36;;;;;;;;;43.00;35.50;;;;;16.33;55.02;101275.09;5078755;28;45431;-71
2023/05/01 06:18:01;;;;;;;;;50.25;35.25;;;;;16.18;54.86;101247.09;5078056;28;46484;-72
2023/05/01 06:20:28;;;;;;;;;43.50;35.75;;;;;16.18;54.81;101254.16;5076057;28;45912;-73
2023/05/01 06:22:54;;;;;;;;;47.25;34.50;;;;;16.28;55.09;101271.66;5074102;28;45458;-71
2023/05/01 06:25:20;;;;;;;;;40.75;34.75;;;;;16.20;54.84;101263.81;5055785;28;45547;-71
2023/05/01 06:27:46;;;;;;;;;43.50;34.75;;;;;16.17;55.07;101260.34;5056145;28;46355;-72
2023/05/01 06:30:12;;;;;;;;;50.50;35.75;;;;;16.27;55.16;101278.69;5072790;28;45504;-73
2023/05/01 06:32:38;;;;;;;;;42.25;36.75;;;;;16.21;55.14;101275.28;5076069;28;45418;-72
2023/05/01 06:35:04;;;;;;;;;47.50;36.75;;;;;16.23;55.25;101278.75;5060032;28;45390;-72
2023/05/01 06:37:30;;;;;;;;;51.75;39.50;;;;;16.14;55.08;101252.47;5075619;28;46398;-71
2023/05/01 06:39:59;;;;;;;;;49.25;37.50;;;;;16.21;55.67;101278.78;5073947;28;45636;-72
2023/05/01 06:42:25;;;;;;;;;46.25;36.00;;;;;16.14;55.53;101277.13;5051814;28;45817;-74
2023/05/01 06:44:50;;;;;;;;;41.50;34.00;;;;;16.16;55.54;101290.28;5065077;28;45424;-73
2023/05/01 06:47:17;;;;;;;;;44.75;35.25;;;;;16.10;55.55;101286.81;5056822;28;45600;-72
2023/05/01 06:49:43;;;;;;;;;18.50;17.75;;;;;16.00;56.00;101282.56;5075724;28;45907;-73
2023/05/01 06:52:09;;;;;;;;;52.75;38.50;;;;;15.97;55.80;101276.41;5073683;28;45448;-73
2023/05/01 06:54:34;;;;;;;;;56.50;40.00;;;;;16.16;55.65;101256.84;5056084;28;45574;-72
2023/05/01 06:57:00;;;;;;;;;46.25;36.25;;;;;16.47;55.03;101288.16;5073891;28;45493;-73
2023/05/01 06:59:26;;;;;;;;;49.25;35.25;;;;;16.68;54.64;101279.00;5072587;28;45485;-73
2023/05/01 07:01:52;;;;;;;;;51.00;38.50;;;;;16.84;54.16;101282.34;5073621;28;45755;-72
2023/05/01 07:04:17;;;;;;;;;42.50;35.25;;;;;16.72;53.99;101235.75;5072177;28;45902;-73
2023/05/01 07:06:43;;;;;;;;;46.25;34.25;;;;;17.08;53.34;101275.78;5073082;28;45418;-71
2023/05/01 07:09:10;;;;;;;;;41.75;34.75;;;;;17.25;53.03;101287.00;5051143;28;45976;-74
2023/05/01 07:11:37;;;;;;;;;33.75;30.25;;;;;17.31;52.83;101286.88;5069207;28;45313;-72
2023/05/01 07:14:02;;;;;;;;;42.00;33.75;;;;;17.42;52.65;101285.84;5074094;28;45883;-72
2023/05/01 07:16:28;;;;;;;;;33.00;26.75;;;;;17.58;52.16;101303.16;5054947;28;46450;-72
2023/05/01 07:18:54;;;;;;;;;41.00;33.50;;;;;17.54;52.40;101285.59;5072797;28;45537;-70
2023/05/01 07:21:20;;;;;;;;;38.50;32.25;;;;;17.45;51.97;101262.81;5048155;28;45442;-73
2023/05/01 07:23:45;;;;;;;;;37.75;31.50;;;;;17.67;52.07;101289.75;5073925;27;45597;-71
2023/05/01 07:26:11;;;;;;;;;47.50;35.00;;;;;17.76;51.54;101288.72;5072720;28;46439;-72
2023/05/01 07:28:37;;;;;;;;;45.75;35.00;;;;;17.84;51.41;101293.91;5054691;28;45827;-73
2023/05/01 07:31:03;;;;;;;;;39.25;31.75;;;;;17.91;51.41;101295.53;5056190;28;45630;-73
2023/05/01 07:33:29;;;;;;;;;31.00;25.33;;;;;18.05;50.95;101293.47;5057640;28;45391;-73
2023/05/01 07:35:55;;;;;;;;;32.67;28.33;;;;;18.25;50.52;101295.75;5054962;28;46194;-72
2023/05/01 07:38:21;;;;;;;;;28.00;28.00;;;;;18.32;50.41;101310.63;5073397;28;45469;-73
2023/05/01 07:40:46;;;;;;;;;36.00;28.67;;;;;18.32;50.27;101297.34;5073275;28;45490;-72
2023/05/01 07:43:12;;;;;;;;;41.00;30.67;;;;;18.40;50.25;101307.78;5079822;28;45602;-71
2023/05/01 07:45:38;;;;;;;;;45.50;33.25;;;;;18.33;50.30;101299.09;5057417;28;46715;-73
2023/05/01 07:48:05;;;;;;;;;39.67;31.33;;;;;18.38;50.28;101299.00;5076122;28;45553;-72
2023/05/01 07:50:31;;;;;;;;;28.00;26.00;;;;;18.41;50.43;101285.66;5076121;28;45473;-72
2023/05/01 07:52:57;;;;;;;;;38.33;30.67;;;;;18.46;49.84;101304.13;5076592;27;45612;-72
2023/05/01 07:55:23;;;;;;;;;32.67;30.00;;;;;18.36;50.15;101292.84;5052135;28;46749;-72
2023/05/01 07:57:49;;;;;;;;;33.33;26.33;;;;;18.41;50.11;101309.53;5075804;28;45431;-73
2023/05/01 08:00:15;;;;;;;;;36.67;28.67;;;;;18.31;50.32;101315.94;5075858;28;45324;-72
2023/05/01 08:02:41;;;;;;;;;36.67;29.33;;;;;18.20;51.20;101309.09;5079163;28;45373;-72
2023/05/01 08:05:07;;;;;;;;;37.00;30.00;;;;;18.09;50.90;101313.72;5077069;28;45532;-73
2023/05/01 08:07:33;;;;;;;;;36.33;31.67;;;;;17.91;51.03;101306.13;5053356;28;45347;-73
2023/05/01 08:10:01;;;;;;;;;35.33;28.67;;;;;17.80;51.58;101309.88;5054799;28;45530;-72
2023/05/01 08:12:30;;;;;;;;;34.00;27.33;;;;;17.66;51.73;101311.00;5068105;28;45362;-71
2023/05/01 08:14:55;;;;;;;;;22.33;21.00;;;;;17.52;52.04;101317.41;5061352;28;47124;-71
2023/05/01 08:17:21;;;;;;;;;30.67;26.33;;;;;17.42;51.92;101307.03;5080072;28;45331;-71
2023/05/01 08:19:46;;;;;;;;;26.33;24.67;;;;;17.37;52.59;101325.63;5058901;28;45494;-71
2023/05/01 08:22:13;;;;;;;;;35.67;27.00;;;;;17.22;53.40;101299.38;5080160;28;45454;-73
2023/05/01 08:24:39;;;;;;;;;28.67;23.33;;;;;17.30;52.88;101313.38;5059799;28;47932;-73
2023/05/01 08:27:05;;;;;;;;;24.00;20.33;;;;;17.22;52.97;101308.19;5080282;28;45537;-73
2023/05/01 08:29:31;;;;;;;;;25.67;21.00;;;;;17.37;52.63;101321.19;5058463;28;45524;-73
2023/05/01 08:31:57;;;;;;;;;24.00;22.67;;;;;17.43;52.72;101316.69;5076536;28;45465;-72
2023/05/01 08:34:23;;;;;;;;;26.67;22.67;;;;;17.50;52.97;101320.97;5076789;28;45445;-72
2023/05/01 08:36:49;;;;;;;;;21.33;19.67;;;;;17.59;52.16;101324.34;5057015;28;45590;-70
2023/05/01 08:39:14;;;;;;;;;27.00;23.33;;;;;17.69;51.82;101324.19;5076344;28;45683;-70
2023/05/01 08:41:44;;;;;;;;;22.67;20.67;;;;;17.75;51.75;101327.59;5053482;28;45541;-71
2023/05/01 08:44:12;;;;;;;;;18.33;14.67;;;;;17.82;51.45;101331.06;5074573;28;46489;-71
2023/05/01 08:47:06;;;;;;;;;23.33;18.67;;;;;17.88;51.34;101330.91;5073777;28;45489;-71
2023/05/01 08:49:36;;;;;;;;;19.33;15.00;;;;;17.89;51.15;101334.44;5071879;27;46736;-72
2023/05/01 08:52:03;;;;;;;;;16.67;15.33;;;;;17.88;51.23;101322.97;5071393;28;45421;-71
2023/05/01 08:54:31;;;;;;;;;19.33;16.33;;;;;17.90;51.30;101336.19;5059420;28;47944;-73
2023/05/01 08:57:03;;;;;;;;;16.67;13.33;;;;;17.91;51.40;101340.59;5078029;28;45486;-72
2023/05/01 08:59:36;;;;;;;;;15.00;15.00;;;;;17.80;51.48;101323.13;5070278;28;45470;-70
2023/05/01 09:02:04;;;;;;;;;20.67;16.00;;;;;17.86;52.94;101334.50;5061602;28;45544;-70
2023/05/01 09:04:36;;;;;;;;;17.33;15.67;;;;;17.83;52.30;101343.38;5079287;28;45518;-70
2023/05/01 09:07:02;;;;;;;;;15.00;13.33;;;;;17.83;51.96;101340.72;5074605;28;45556;-70
2023/05/01 09:09:29;;;;;;;;;21.50;16.00;;;;;17.83;51.97;101340.72;5070290;28;45926;-71
2023/05/01 09:12:15;;;;;;;;;22.33;19.00;;;;;17.83;52.08;101348.69;5055465;28;45651;-70
2023/05/01 09:14:41;;;;;;;;;19.33;16.00;;;;;17.75;52.24;101343.50;5068666;28;45573;-69
2023/05/01 09:17:06;;;;;;;;;21.00;18.00;;;;;17.77;52.38;101349.66;5075091;28;45387;-70
2023/05/01 09:19:32;;;;;;;;;22.00;16.33;;;;;17.76;52.50;101347.88;5074683;28;45402;-70
2023/05/01 09:21:57;;;;;;;;;16.00;14.33;;;;;17.73;52.46;101333.84;5056481;28;45339;-71
2023/05/01 09:24:27;;;;;;;;;17.67;15.33;;;;;17.79;52.54;101347.81;5064042;28;45680;-70
2023/05/01 09:26:53;;;;;;;;;22.67;18.33;;;;;17.76;52.78;101341.72;5042756;28;45501;-70
2023/05/01 09:29:42;;;;;;;;;20.00;16.33;;;;;17.66;52.84;101342.78;5055051;28;45640;-70
2023/05/01 09:32:27;;;;;;;;;13.00;12.67;;;;;17.68;52.87;101356.88;5069341;28;45643;-70
2023/05/01 09:34:54;;;;;;;;;14.67;13.33;;;;;17.66;53.11;101348.94;5070043;28;46219;-70
2023/05/01 09:37:27;;;;;;;;;11.33;10.67;;;;;17.78;53.00;101366.41;5056165;28;45345;-71
2023/05/01 09:40:08;;;;;;;;;14.67;13.33;;;;;17.77;52.92;101359.34;5074607;28;45610;-71
2023/05/01 09:42:47;;;;;;;;;15.67;12.67;;;;;17.82;53.11;101364.59;5070910;28;45673;-69
2023/05/01 09:45:13;;;;;;;;;18.00;11.67;;;;;17.79;53.04;101366.38;5075783;28;46636;-70
2023/05/01 09:47:44;;;;;;;;;12.00;11.33;;;;;17.65;53.20;101354.25;5077643;28;45365;-69
2023/05/01 09:50:27;;;;;;;;;20.67;13.67;;;;;17.66;53.09;101354.25;5055789;28;46716;-71
2023/05/01 09:52:52;;;;;;;;;13.33;11.33;;;;;17.88;53.09;101369.78;5048140;28;45636;-70
2023/05/01 09:55:18;;;;;;;;;14.00;13.33;;;;;18.00;52.66;101372.22;5072458;28;45986;-70
2023/05/01 09:57:45;;;;;;;;;12.33;11.33;;;;;17.99;53.36;101358.09;5073111;28;45347;-71
2023/05/01 10:00:14;;;;;;;;;14.33;11.00;;;;;18.11;52.65;101357.00;5073048;28;45630;-71
2023/05/01 10:02:49;;;;;;;;;12.33;8.67;;;;;18.48;51.93;101365.97;5050839;28;45478;-71
2023/05/01 10:05:15;;;;;;;;;13.67;13.00;;;;;18.69;51.41;101359.34;5072580;28;46906;-71
2023/05/01 10:08:02;;;;;;;;;15.67;12.00;;;;;18.85;51.21;101353.69;5072535;27;45580;-71
2023/05/01 10:10:28;;;;;;;;;7.67;7.00;;;;;18.91;50.90;101363.31;5070018;28;45842;-70
2023/05/01 10:12:54;;;;;;;;;9.33;7.33;;;;;18.87;50.89;101358.13;5076380;28;45345;-71
2023/05/01 10:15:20;;;;;;;;;10.67;9.00;;;;;18.82;50.98;101356.44;5051285;28;47231;-71
2023/05/01 10:17:50;;;;;;;;;9.67;8.33;;;;;18.73;50.96;101361.03;5069071;28;45508;-69
2023/05/01 10:20:16;;;;;;;;;9.33;8.33;;;;;18.58;51.08;101349.84;5076731;28;45343;-71
2023/05/01 10:22:41;;;;;;;;;6.67;6.67;;;;;18.62;50.83;101356.81;5056430;28;45306;-72
2023/05/01 10:25:10;;;;;;;;;12.33;8.33;;;;;18.52;51.11;101355.28;5058516;28;46788;-71
2023/05/01 10:27:38;;;;;;;;;10.67;7.67;;;;;18.48;51.20;101361.53;5074440;28;45367;-70
2023/05/01 10:30:05;;;;;;;;;7.67;7.67;;;;;18.51;51.56;101349.97;5075556;28;45401;-71
2023/05/01 10:32:33;;;;;;;;;12.00;8.67;;;;;18.77;51.41;101353.00;5076203;28;45352;-68
2023/05/01 10:35:15;;;;;;;;;15.33;13.67;;;;;19.09;51.65;101345.22;5074216;28;45717;-69
2023/05/01 10:38:06;;;;;;;;;14.33;12.00;;;;;19.49;50.66;101356.59;5068617;28;45498;-69
2023/05/01 10:40:38;;;;;;;;;14.00;12.00;;;;;19.90;50.00;101349.34;5074948;28;45395;-69
2023/05/01 10:43:26;;;;;;;;;13.00;13.00;;;;;20.23;49.39;101352.00;5056114;28;45496;-70
2023/05/01 10:45:53;;;;;;;;;12.33;11.33;;;;;20.43;49.21;101356.75;5067768;28;45713;-69
2023/05/01 10:48:39;;;;;;;;;11.67;11.00;;;;;20.54;49.49;101359.09;5054189;28;45293;-69
2023/05/01 10:51:14;;;;;;;;;15.33;11.33;;;;;20.64;49.21;101357.94;5069345;28;45415;-69
2023/05/01 10:53:45;;;;;;;;;9.00;9.00;;;;;20.65;49.01;101354.38;5078054;28;45411;-67
2023/05/01 10:56:28;;;;;;;;;10.33;7.33;;;;;20.67;48.85;101360.53;5077948;28;46048;-70
2023/05/01 10:59:03;;;;;;;;;10.33;9.67;;;;;20.73;49.10;101352.31;5051728;28;45447;-70
2023/05/01 11:01:33;;;;;;;;;14.00;8.67;;;;;20.72;48.71;101355.94;5049078;28;45515;-70
2023/05/01 11:04:03;;;;;;;;;12.67;10.00;;;;;20.69;48.98;101352.47;5066059;28;45477;-68
2023/05/01 11:06:29;;;;;;;;;15.67;9.67;;;;;20.59;48.91;101338.56;5073705;28;45529;-69
2023/05/01 11:08:55;;;;;;;;;15.33;9.33;;;;;20.48;49.33;101327.38;5073712;28;45372;-68
2023/05/01 11:11:21;;;;;;;;;14.33;13.00;;;;;20.50;49.74;101350.34;5053038;28;45404;-68
2023/05/01 11:14:01;;;;;;;;;15.67;12.33;;;;;20.41;49.47;101339.97;5059424;28;45488;-68